AA3660 / N661JA 7700 Squawk Report (22nd of January, 2020)

Aircraft E145 Reg No. N661JA Age N/A
Model ERJ-145 Jet engines 2 First flight 12-03
Registered 15-12-03 Rollout 11-03 Delivered 15-12-03
Construction No. 145766 Line No. N/A Series LR
ADSHEX A8B8B9 Airline name American Eagle Airlines Owner Envoy Air
Airfield based Dallas-Fort Worth~TX~N First tracked 2017-07-13 21:32:00

Flight history for N661JA

Route Flight No Date Playback
Chicago Ohare Intl (ORD) - Fort Wayne (FWA) - Chicago Ohare Intl (ORD) AA4068 2020-02-17 16:42:00
Sioux Gateway Col Bud Day Fld (SUX) - Chicago Ohare Intl (ORD) AA3879 2020-02-17 14:22:00
Chicago Ohare Intl (ORD) - Sioux Gateway Col Bud Day Fld (SUX) AA3351 2020-02-17 04:50:00
Chicago Ohare Intl (ORD) - Port Columbus (CMH) - Chicago Ohare Intl (ORD) AA3349 2020-02-17 03:23:00
Miami Intl (MIA) - Port Columbus (CMH) - Miami Intl (MIA) AA3332 2020-02-16 23:07:00
Greenville-Spartanburg International (GSP) - Miami Intl (MIA) AA3446 2020-02-16 12:54:00
Miami Intl (MIA) - Greenville-Spartanburg International (GSP) AA3411 2020-02-16 11:19:00
Tallahassee Rgnl (TLH) - Miami Intl (MIA) AA3844 2020-02-16 02:29:00
Port Columbus (CMH) - Miami Intl (MIA) AA3775 2020-02-15 15:56:00
Miami Intl (MIA) - Port Columbus (CMH) AA3834 2020-02-15 13:17:00
Miami Intl (MIA) - Jacksonville Intl (JAX) - Miami Intl (MIA) AA4146 2020-02-14 20:08:00
Port Columbus (CMH) - Miami Intl (MIA) AA3775 2020-02-14 15:48:00
Miami Intl (MIA) - Port Columbus (CMH) AA3798 2020-02-14 05:19:00
Norfolk Intl (ORF) - Miami Intl (MIA) AA3367 2020-02-14 02:08:00
Miami Intl (MIA) - North Eleuthera (ELH) - Miami Intl (MIA) AA3511 2020-02-13 19:03:00
Pensacola Rgnl (PNS) - Miami Intl (MIA) AA3508 2020-02-13 15:50:00
Miami Intl (MIA) - Pensacola Rgnl (PNS) AA4109 2020-02-13 13:41:00
Miami Intl (MIA) - Charleston Afb Intl (CHS) - Miami Intl (MIA) AA3941 2020-02-13 04:50:00
Birmingham Intl (BHM) - Miami Intl (MIA) AA3380 2020-02-12 13:51:00
Miami Intl (MIA) - Birmingham Intl (BHM) AA3393 2020-02-12 04:41:00
Time Lat Lon Altitude Heading Speed Vertical Rate
2020-01-23 01:29:31 GMT 41.971390 -87.903984 0 92 26 0
2020-01-23 01:29:05 GMT 41.971653 -87.907356 0 112 27 0
2020-01-23 01:28:23 GMT 41.975128 -87.912086 0 140 25 0
2020-01-23 01:28:13 GMT 41.976131 -87.913223 0 140 26 0
2020-01-23 01:27:56 GMT 41.977558 -87.914818 0 140 25 0
2020-01-23 01:27:53 GMT 41.977730 -87.915016 0 140 24 0
2020-01-23 01:27:25 GMT 41.977959 -87.917809 0 92 20 0
2020-01-23 01:26:00 GMT 41.983807 -87.925407 0 140 17 0
2020-01-23 01:25:44 GMT 41.984753 -87.926476 0 140 17 0
2020-01-23 01:24:54 GMT 41.986828 -87.931046 0 109 16 0
2020-01-23 01:24:51 GMT 41.987011 -87.931343 0 157 15 0
2020-01-23 01:21:17 GMT 42.002827 -87.902252 0 180 22 0
2020-01-23 01:21:24 GMT 42.002827 -87.907425 450 270 120 -256
2020-01-23 01:21:12 GMT 42.002827 -87.898163 550 270 130 -576
2020-01-23 01:21:02 GMT 42.002838 -87.890999 675 270 129 -512
2020-01-23 01:20:55 GMT 42.002872 -87.885834 725 271 128 -704
2020-01-23 01:20:50 GMT 42.002827 -87.880402 800 271 127 -640
2020-01-23 01:20:47 GMT 42.002838 -87.878014 825 270 126 -576
2020-01-23 01:20:43 GMT 42.002827 -87.875679 875 270 125 -640
2020-01-23 01:20:40 GMT 42.002827 -87.872231 1,000 270 126 -704
2020-01-23 01:20:37 GMT 42.002827 -87.870949 1,000 271 128 -896
2020-01-23 01:20:32 GMT 42.002838 -87.866966 1,025 271 128 -1024
2020-01-23 01:20:29 GMT 42.002838 -87.865402 1,050 271 130 -768
2020-01-23 01:20:26 GMT 42.002838 -87.861473 1,125 270 132 -512
2020-01-23 01:20:22 GMT 42.002827 -87.858940 1,150 271 136 -704
2020-01-23 01:20:18 GMT 42.002827 -87.852364 1,250 271 142 -832
2020-01-23 01:20:09 GMT 42.002792 -87.847176 1,325 271 143 -576
2020-01-23 01:20:05 GMT 42.002781 -87.844124 1,350 271 144 -1216
2020-01-23 01:20:00 GMT 42.002747 -87.840378 1,450 271 144 -1216
2020-01-23 01:19:54 GMT 42.002781 -87.831673 1,600 270 152 -832
2020-01-23 01:19:48 GMT 42.002781 -87.829369 1,650 271 157 -832
2020-01-23 01:19:42 GMT 42.002735 -87.822212 1,750 271 171 -384
2020-01-23 01:19:39 GMT 42.002735 -87.818832 1,775 270 173 -448
2020-01-23 01:19:34 GMT 42.002747 -87.814285 1,800 270 182 -1088
2020-01-23 01:19:31 GMT 42.002747 -87.809349 1,875 271 183 -1088
2020-01-23 01:19:28 GMT 42.002735 -87.807777 1,875 271 183 -1088
2020-01-23 01:19:25 GMT 42.002735 -87.804970 1,975 270 190 -1280
2020-01-23 01:19:22 GMT 42.002701 -87.801483 1,975 270 190 -1280
2020-01-23 01:19:17 GMT 42.002689 -87.794624 2,075 270 190 -1088
2020-01-23 01:19:13 GMT 42.002701 -87.788689 2,200 270 190 -1024
2020-01-23 01:19:07 GMT 42.002747 -87.782944 2,250 270 190 -1024
2020-01-23 01:19:03 GMT 42.002747 -87.777702 2,350 270 191 -1088
2020-01-23 01:19:00 GMT 42.002747 -87.774330 2,400 270 191 -1088
2020-01-23 01:18:56 GMT 42.002747 -87.770027 2,450 270 191 -1088
2020-01-23 01:18:52 GMT 42.002735 -87.765945 2,525 271 193 -1024
2020-01-23 01:18:49 GMT 42.002735 -87.760643 2,600 271 193 -1152
2020-01-23 01:18:46 GMT 42.002701 -87.757980 2,650 271 194 -1152
2020-01-23 01:18:41 GMT 42.002701 -87.750175 2,775 271 196 -1216
2020-01-23 01:18:38 GMT 42.002655 -87.744308 2,875 271 196 -1216
2020-01-23 01:18:35 GMT 42.002609 -87.740311 2,925 271 197 -1152
2020-01-23 01:18:31 GMT 42.002609 -87.740311 2,925 271 197 -1152
2020-01-23 01:18:28 GMT 42.002594 -87.735153 3,025 271 198 -1408
2020-01-23 01:18:24 GMT 42.002563 -87.731949 3,100 271 199 -1216
2020-01-23 01:18:21 GMT 42.002518 -87.727455 3,175 271 200 -1216
2020-01-23 01:18:18 GMT 42.002502 -87.722633 3,275 271 203 -1216
2020-01-23 01:18:14 GMT 42.002457 -87.718102 3,300 271 203 -1152
2020-01-23 01:18:10 GMT 42.002426 -87.713783 3,350 271 204 -1280
2020-01-23 01:18:06 GMT 42.002426 -87.709099 3,450 271 205 -1088
2020-01-23 01:18:03 GMT 42.002407 -87.704750 3,475 270 205 -1280
2020-01-23 01:18:00 GMT 42.002361 -87.696510 3,575 270 205 -1216
2020-01-23 01:17:57 GMT 42.002361 -87.696510 3,625 270 205 -1088
2020-01-23 01:17:52 GMT 42.002380 -87.691620 3,700 270 206 -896
2020-01-23 01:17:49 GMT 42.002361 -87.686737 3,750 270 206 -576
2020-01-23 01:17:43 GMT 42.002380 -87.679321 3,800 270 203 -256
2020-01-23 01:17:40 GMT 42.002380 -87.671646 3,800 270 203 -256
2020-01-23 01:17:37 GMT 42.002380 -87.671646 3,800 270 202 -64
2020-01-23 01:17:33 GMT 42.002380 -87.665596 3,825 270 201 -64
2020-01-23 01:17:30 GMT 42.002407 -87.661827 3,800 270 202 -128
2020-01-23 01:17:26 GMT 42.002457 -87.653778 3,800 270 201 0
2020-01-23 01:17:19 GMT 42.002472 -87.643059 3,825 272 201 -128
2020-01-23 01:17:15 GMT 42.002472 -87.643059 3,825 271 201 -64
2020-01-23 01:17:12 GMT 42.002472 -87.640434 3,825 271 201 -128
2020-01-23 01:17:09 GMT 42.002407 -87.636154 3,825 273 201 -64
2020-01-23 01:17:05 GMT 42.002220 -87.630661 3,825 274 203 192
2020-01-23 01:16:59 GMT 42.001896 -87.623566 3,825 274 205 192
2020-01-23 01:16:56 GMT 42.001663 -87.618973 3,800 274 206 64
2020-01-23 01:16:52 GMT 42.001476 -87.614815 3,800 274 207 -64
2020-01-23 01:16:49 GMT 42.001328 -87.611473 3,825 273 207 0
2020-01-23 01:16:46 GMT 42.001152 -87.606514 3,800 272 207 0
2020-01-23 01:16:43 GMT 42.001099 -87.602669 3,800 269 205 64
2020-01-23 01:16:38 GMT 42.001198 -87.596230 3,800 266 203 64
2020-01-23 01:16:35 GMT 42.001431 -87.592209 3,800 262 202 -64
2020-01-23 01:16:31 GMT 42.001896 -87.587669 3,800 260 200 0
2020-01-23 01:16:27 GMT 42.002548 -87.583839 3,800 245 195 -64
2020-01-23 01:16:23 GMT 42.003712 -87.578598 3,800 243 194 0
2020-01-23 01:16:17 GMT 42.005714 -87.572403 3,800 244 195 64
2020-01-23 01:16:14 GMT 42.006924 -87.569275 3,800 243 194 -64
2020-01-23 01:16:10 GMT 42.009113 -87.563721 3,800 242 193 -64
2020-01-23 01:16:05 GMT 42.011578 -87.557457 3,800 243 193 0
2020-01-23 01:16:02 GMT 42.012177 -87.555855 3,800 244 191 -64
2020-01-23 01:15:59 GMT 42.013138 -87.553291 3,800 244 191 -64
2020-01-23 01:15:55 GMT 42.014557 -87.549423 3,825 243 190 0
2020-01-23 01:15:51 GMT 42.016373 -87.544556 3,825 242 189 0
2020-01-23 01:15:47 GMT 42.018677 -87.539558 3,800 238 187 64
2020-01-23 01:15:43 GMT 42.020611 -87.536636 3,800 208 185 192
2020-01-23 01:15:39 GMT 42.023357 -87.533829 3,800 208 185 192
2020-01-23 01:15:35 GMT 42.025826 -87.532097 3,800 184 188 0
2020-01-23 01:15:32 GMT 42.028610 -87.530945 3,800 191 187 -128
2020-01-23 01:15:28 GMT 42.031876 -87.530251 3,800 186 188 0
2020-01-23 01:15:24 GMT 42.035568 -87.529823 3,800 185 189 0
2020-01-23 01:15:21 GMT 42.038158 -87.529610 3,800 184 189 0
2020-01-23 01:15:17 GMT 42.041153 -87.529259 3,800 185 189 0
2020-01-23 01:15:14 GMT 42.044998 -87.528885 3,800 185 189 64
2020-01-23 01:15:10 GMT 42.053101 -87.528015 3,800 185 190 0
2020-01-23 01:15:03 GMT 42.056129 -87.527756 3,800 185 190 0
2020-01-23 01:15:00 GMT 42.056129 -87.527756 3,800 185 190 64
2020-01-23 01:14:57 GMT 42.059296 -87.527374 3,800 185 190 0
2020-01-23 01:14:54 GMT 42.062302 -87.527016 3,800 170 195 -64
2020-01-23 01:14:49 GMT 42.068619 -87.526138 3,800 187 191 -64
2020-01-23 01:14:41 GMT 42.072510 -87.525581 3,800 184 191 64
2020-01-23 01:14:38 GMT 42.076080 -87.525330 3,800 182 192 64
2020-01-23 01:14:32 GMT 42.081482 -87.525894 3,800 162 198 0
2020-01-23 01:14:27 GMT 42.090019 -87.531586 3,800 144 207 -64
2020-01-23 01:14:23 GMT 42.092579 -87.534843 3,775 134 212 64
2020-01-23 01:14:15 GMT 42.093933 -87.537193 3,800 126 216 64
2020-01-23 01:14:11 GMT 42.096630 -87.543663 3,800 111 225 64
2020-01-23 01:14:07 GMT 42.098026 -87.549667 3,800 99 239 64
2020-01-23 01:14:04 GMT 42.098602 -87.558479 3,800 82 265 -384
2020-01-23 01:14:00 GMT 42.098602 -87.558479 3,800 87 254 -64
2020-01-23 01:13:54 GMT 42.097778 -87.570084 3,800 83 264 0
2020-01-23 01:13:49 GMT 42.097282 -87.574959 3,800 82 264 -64
2020-01-23 01:13:44 GMT 42.095673 -87.594307 3,800 82 266 -320
2020-01-23 01:13:40 GMT 42.095234 -87.600571 3,800 82 266 -256
2020-01-23 01:13:35 GMT 42.095234 -87.600571 3,800 82 266 -320
2020-01-23 01:13:32 GMT 42.094849 -87.604858 3,800 82 266 0
2020-01-23 01:13:27 GMT 42.094208 -87.611115 3,800 82 267 0
2020-01-23 01:13:24 GMT 42.092857 -87.624397 3,800 82 267 -64
2020-01-23 01:13:21 GMT 42.092857 -87.624397 3,825 82 267 -256
2020-01-23 01:13:18 GMT 42.092487 -87.628357 3,825 82 266 -320
2020-01-23 01:13:11 GMT 42.091415 -87.638901 3,850 82 266 -384
2020-01-23 01:13:07 GMT 42.090858 -87.644836 3,875 82 268 -512
2020-01-23 01:13:03 GMT 42.089676 -87.656540 3,950 82 268 -1088
2020-01-23 01:13:00 GMT 42.089676 -87.656540 3,975 82 268 -1088
2020-01-23 01:12:57 GMT 42.089127 -87.661850 4,050 82 269 -1536
2020-01-23 01:12:53 GMT 42.088531 -87.668213 4,300 82 268 -1600
2020-01-23 01:12:50 GMT 42.088017 -87.673515 4,225 81 272 -1600
2020-01-23 01:12:47 GMT 42.087433 -87.679260 4,300 82 268 -1600
2020-01-23 01:12:43 GMT 42.086903 -87.684822 4,450 82 269 -1600
2020-01-23 01:12:40 GMT 42.086472 -87.689186 4,475 82 270 -1536
2020-01-23 01:12:36 GMT 42.085644 -87.696960 4,600 81 272 -1536
2020-01-23 01:12:31 GMT 42.084778 -87.704796 4,725 81 276 -1536
2020-01-23 01:12:27 GMT 42.083920 -87.711906 4,850 81 278 -1472
2020-01-23 01:12:24 GMT 42.083176 -87.718468 4,925 81 279 -1536
2020-01-23 01:12:21 GMT 42.082672 -87.723335 5,000 81 278 -1472
2020-01-23 01:12:17 GMT 42.081985 -87.729576 5,075 82 279 -1152
2020-01-23 01:12:14 GMT 42.081638 -87.733429 5,100 82 278 -1280
2020-01-23 01:12:10 GMT 42.080803 -87.741669 5,225 81 279 -960
2020-01-23 01:12:07 GMT 42.080292 -87.746178 5,275 78 280 -960
2020-01-23 01:12:04 GMT 42.078568 -87.756172 5,375 67 286 -1152
2020-01-23 01:11:58 GMT 42.077133 -87.761223 5,525 57 289 -1280
2020-01-23 01:11:54 GMT 42.074890 -87.766968 5,500 58 288 -1216
2020-01-23 01:11:51 GMT 42.071770 -87.773354 5,575 54 289 -1152
2020-01-23 01:11:48 GMT 42.069908 -87.776932 5,625 54 289 -1152
2020-01-23 01:11:44 GMT 42.066093 -87.783958 5,725 54 289 -1152
2020-01-23 01:11:39 GMT 42.063080 -87.789566 5,775 54 289 -1152
2020-01-23 01:11:36 GMT 42.060562 -87.794304 5,850 54 289 -1088
2020-01-23 01:11:33 GMT 42.058411 -87.798302 5,875 54 289 -1088
2020-01-23 01:11:30 GMT 42.055573 -87.803734 5,975 54 288 -1152
2020-01-23 01:11:27 GMT 42.053696 -87.807289 6,100 54 287 -1216
2020-01-23 01:11:24 GMT 42.050629 -87.813225 6,100 54 287 -1152
2020-01-23 01:11:21 GMT 42.049240 -87.815826 6,125 54 287 -1152
2020-01-23 01:11:18 GMT 42.044258 -87.825279 6,250 54 288 -1152
2020-01-23 01:11:15 GMT 42.042072 -87.829437 6,275 54 289 -1152
2020-01-23 01:11:12 GMT 42.039047 -87.835007 6,350 54 290 -1152
2020-01-23 01:11:08 GMT 42.039047 -87.835007 6,375 53 291 -1152
2020-01-23 01:11:05 GMT 42.035843 -87.840935 6,450 53 294 -1152
2020-01-23 01:11:01 GMT 42.029572 -87.852364 6,550 53 299 -960
2020-01-23 01:10:57 GMT 42.029572 -87.852364 6,600 54 300 -832
2020-01-23 01:10:54 GMT 42.027779 -87.855751 6,650 54 301 -704
2020-01-23 01:10:51 GMT 42.024845 -87.861244 6,725 53 303 -512
2020-01-23 01:10:48 GMT 42.022385 -87.865906 6,700 54 302 -640
2020-01-23 01:10:45 GMT 42.017864 -87.874146 6,750 52 302 -512
2020-01-23 01:10:38 GMT 42.012863 -87.881950 6,800 44 305 -192
2020-01-23 01:10:35 GMT 42.010803 -87.884628 6,800 44 305 -192
2020-01-23 01:10:32 GMT 42.007202 -87.888962 6,800 40 303 64
2020-01-23 01:10:25 GMT 42.001373 -87.895622 6,800 40 302 -64
2020-01-23 01:10:22 GMT 41.996403 -87.901291 6,825 40 302 -64
2020-01-23 01:10:19 GMT 41.994461 -87.903481 6,825 40 301 -64
2020-01-23 01:10:16 GMT 41.991238 -87.907104 6,825 40 299 64
2020-01-23 01:10:13 GMT 41.988007 -87.910789 6,825 39 298 128
2020-01-23 01:10:10 GMT 41.983089 -87.916306 6,800 39 298 0
2020-01-23 01:10:06 GMT 41.978806 -87.921097 6,800 39 296 0
2020-01-23 01:10:03 GMT 41.977295 -87.922775 6,800 39 296 -64
2020-01-23 01:10:00 GMT 41.973450 -87.927017 6,800 39 296 0
2020-01-23 01:09:57 GMT 41.971962 -87.928696 6,800 39 296 64
2020-01-23 01:09:54 GMT 41.965214 -87.936295 6,800 40 295 0
2020-01-23 01:09:48 GMT 41.960976 -87.941086 6,800 40 295 -64
2020-01-23 01:09:45 GMT 41.957840 -87.944748 6,800 40 295 0
2020-01-23 01:09:42 GMT 41.955322 -87.947617 6,800 39 294 0
2020-01-23 01:09:39 GMT 41.951981 -87.951424 6,800 40 294 64
2020-01-23 01:09:36 GMT 41.949665 -87.954056 6,800 40 294 64
2020-01-23 01:09:33 GMT 41.945206 -87.959038 6,800 39 294 64
2020-01-23 01:09:27 GMT 41.939098 -87.965866 6,800 39 293 0
2020-01-23 01:09:23 GMT 41.934174 -87.971275 6,800 39 297 -64
2020-01-23 01:09:20 GMT 41.929459 -87.976517 6,800 39 298 0
2020-01-23 01:09:17 GMT 41.929459 -87.976517 6,800 39 299 128
2020-01-23 01:09:13 GMT 41.924698 -87.981766 6,800 39 301 -192
2020-01-23 01:09:10 GMT 41.920349 -87.986633 6,800 39 309 64
2020-01-23 01:09:06 GMT 41.917282 -87.989998 6,800 39 304 64
2020-01-23 01:09:03 GMT 41.914169 -87.993439 6,800 39 309 64
2020-01-23 01:08:59 GMT 41.905487 -88.003105 6,800 39 310 0
2020-01-23 01:08:56 GMT 41.905487 -88.003105 6,800 39 309 -64
2020-01-23 01:08:53 GMT 41.901718 -88.007294 6,800 38 307 0
2020-01-23 01:08:50 GMT 41.898411 -88.011024 6,800 39 309 0
2020-01-23 01:08:47 GMT 41.895950 -88.013725 6,800 39 308 0
2020-01-23 01:08:42 GMT 41.890869 -88.019203 6,800 39 307 0
2020-01-23 01:08:39 GMT 41.886448 -88.024055 6,800 38 307 -64
2020-01-23 01:08:35 GMT 41.881886 -88.028976 6,800 39 306 0
2020-01-23 01:08:32 GMT 41.878967 -88.032135 6,800 39 306 -64
2020-01-23 01:08:28 GMT 41.875229 -88.036255 6,800 39 305 0
2020-01-23 01:08:24 GMT 41.871094 -88.040810 6,825 39 298 64
2020-01-23 01:08:18 GMT 41.864090 -88.048553 6,825 39 303 -64
2020-01-23 01:08:14 GMT 41.859539 -88.053696 6,825 39 302 0
2020-01-23 01:08:08 GMT 41.853909 -88.059952 6,825 39 299 64
2020-01-23 01:08:04 GMT 41.843399 -88.071709 6,800 39 299 64
2020-01-23 01:07:59 GMT 41.840836 -88.074585 6,800 39 298 0
2020-01-23 01:07:52 GMT 41.834427 -88.081764 6,800 39 297 0
2020-01-23 01:07:49 GMT 41.829712 -88.087006 6,800 39 297 0
2020-01-23 01:07:46 GMT 41.829712 -88.087006 6,800 39 297 0
2020-01-23 01:07:42 GMT 41.826324 -88.090874 6,800 40 298 0
2020-01-23 01:07:38 GMT 41.821198 -88.096619 6,800 40 299 0
2020-01-23 01:07:35 GMT 41.818634 -88.099487 6,800 40 299 0
2020-01-23 01:07:32 GMT 41.814987 -88.103584 6,800 40 299 0
2020-01-23 01:07:29 GMT 41.811768 -88.107231 6,800 39 301 0
2020-01-23 01:07:26 GMT 41.809204 -88.110100 6,800 39 301 0
2020-01-23 01:07:23 GMT 41.806595 -88.112976 6,800 39 302 0
2020-01-23 01:07:20 GMT 41.802704 -88.117279 6,800 39 302 0
2020-01-23 01:07:17 GMT 41.799023 -88.121399 6,800 39 302 0
2020-01-23 01:07:14 GMT 41.795792 -88.124954 6,800 39 302 -64
2020-01-23 01:07:10 GMT 41.791031 -88.130203 6,800 39 303 -64
2020-01-23 01:07:06 GMT 41.785149 -88.136795 6,800 39 304 -128
2020-01-23 01:07:00 GMT 41.781006 -88.141373 6,825 39 305 -256
2020-01-23 01:06:57 GMT 41.777115 -88.145744 6,825 39 305 -256
2020-01-23 01:06:54 GMT 41.774258 -88.148933 6,825 39 305 -256
2020-01-23 01:06:51 GMT 41.766174 -88.158043 6,875 40 307 -768
2020-01-23 01:06:46 GMT 41.766174 -88.158043 6,975 40 308 -832
2020-01-23 01:06:43 GMT 41.763062 -88.161537 6,925 40 308 -832
2020-01-23 01:06:40 GMT 41.759125 -88.165970 7,100 39 308 -1024
2020-01-23 01:06:37 GMT 41.755356 -88.170204 7,025 39 308 -1024
2020-01-23 01:06:33 GMT 41.751572 -88.174400 7,100 39 308 -960
2020-01-23 01:06:30 GMT 41.747814 -88.178566 7,150 39 307 -960
2020-01-23 01:06:26 GMT 41.744064 -88.182701 7,325 39 306 -1024
2020-01-23 01:06:23 GMT 41.740997 -88.186073 7,250 39 306 -1024
2020-01-23 01:06:19 GMT 41.736362 -88.191216 7,325 39 306 -960
2020-01-23 01:06:15 GMT 41.732872 -88.195114 7,375 39 306 -960
2020-01-23 01:06:12 GMT 41.728077 -88.200478 7,450 39 307 -960
2020-01-23 01:06:09 GMT 41.724792 -88.204109 7,500 39 307 -960
2020-01-23 01:06:06 GMT 41.721046 -88.208267 7,550 39 307 -960
2020-01-23 01:06:02 GMT 41.716873 -88.212852 7,600 39 308 -960
2020-01-23 01:05:58 GMT 41.713551 -88.216507 7,650 39 308 -896
2020-01-23 01:05:55 GMT 41.708908 -88.221588 7,725 38 310 -768
2020-01-23 01:05:51 GMT 41.705078 -88.225708 7,750 38 310 -704
2020-01-23 01:05:47 GMT 41.701721 -88.229263 7,800 38 310 -448
2020-01-23 01:05:44 GMT 41.693573 -88.237946 7,825 38 308 0
2020-01-23 01:05:40 GMT 41.693573 -88.237946 7,800 38 313 -64
2020-01-23 01:05:37 GMT 41.690182 -88.241547 7,800 38 313 -64
2020-01-23 01:05:33 GMT 41.684689 -88.247299 7,800 38 311 -64
2020-01-23 01:05:30 GMT 41.681942 -88.250175 7,825 38 310 0
2020-01-23 01:05:27 GMT 41.678101 -88.254234 7,825 38 309 0
2020-01-23 01:05:22 GMT 41.672699 -88.259918 7,825 38 307 64
2020-01-23 01:05:19 GMT 41.668671 -88.264221 7,800 38 307 64
2020-01-23 01:05:14 GMT 41.663090 -88.270226 7,800 38 305 0
2020-01-23 01:05:11 GMT 41.660202 -88.273277 7,800 38 305 64
2020-01-23 01:05:07 GMT 41.655548 -88.278275 7,800 38 305 0
2020-01-23 01:05:03 GMT 41.651592 -88.282555 7,800 38 303 -128
2020-01-23 01:05:00 GMT 41.649170 -88.285133 7,800 39 304 -128
2020-01-23 01:04:54 GMT 41.642166 -88.292747 7,825 39 306 -256
2020-01-23 01:04:50 GMT 41.637314 -88.298058 7,850 39 306 -192
2020-01-23 01:04:47 GMT 41.633575 -88.302231 7,850 39 309 -448
2020-01-23 01:04:43 GMT 41.629349 -88.306854 7,900 39 311 -832
2020-01-23 01:04:40 GMT 41.626236 -88.310356 7,925 39 312 -960
2020-01-23 01:04:35 GMT 41.620422 -88.316780 8,025 39 315 -1216
2020-01-23 01:04:30 GMT 41.613884 -88.324074 8,150 39 314 -1088
2020-01-23 01:04:25 GMT 41.609879 -88.328545 8,200 39 313 -1152
2020-01-23 01:04:19 GMT 41.603851 -88.335258 8,375 40 311 -1024
2020-01-23 01:04:16 GMT 41.599640 -88.339981 8,375 40 311 -1088
2020-01-23 01:04:12 GMT 41.595016 -88.345184 8,450 40 309 -1024
2020-01-23 01:04:09 GMT 41.591770 -88.348923 8,500 41 309 -1024
2020-01-23 01:04:05 GMT 41.587440 -88.353966 8,600 41 326 -1664
2020-01-23 01:04:01 GMT 41.583626 -88.358505 8,700 42 301 -1024
2020-01-23 01:03:57 GMT 41.574738 -88.369217 8,750 42 300 -960
2020-01-23 01:03:53 GMT 41.574738 -88.369217 8,775 42 300 -1152
2020-01-23 01:03:50 GMT 41.572678 -88.371712 8,850 42 300 -1024
2020-01-23 01:03:47 GMT 41.568100 -88.377144 8,900 42 304 -1088
2020-01-23 01:03:44 GMT 41.564957 -88.380920 8,950 42 305 -896
2020-01-23 01:03:38 GMT 41.559677 -88.387321 9,025 41 323 -1408
2020-01-23 01:03:33 GMT 41.555134 -88.392738 9,075 41 315 -960
2020-01-23 01:03:30 GMT 41.550522 -88.398178 9,125 41 321 -1472
2020-01-23 01:03:27 GMT 41.546951 -88.402367 9,200 41 323 -1536
2020-01-23 01:03:23 GMT 41.542419 -88.407669 9,300 41 326 -1600
2020-01-23 01:03:20 GMT 41.537678 -88.413307 9,425 41 328 -1728
2020-01-23 01:03:17 GMT 41.535862 -88.415482 9,675 41 331 -1728
2020-01-23 01:03:11 GMT 41.525070 -88.428329 9,750 41 335 -1792
2020-01-23 01:03:06 GMT 41.522736 -88.431076 9,800 41 335 -1792
2020-01-23 01:03:01 GMT 41.517380 -88.437447 10,225 41 338 -1600
2020-01-23 01:02:57 GMT 41.513191 -88.442497 10,050 42 339 -1728
2020-01-23 01:02:48 GMT 41.501770 -88.456238 10,275 42 338 -1536
2020-01-23 01:02:44 GMT 41.497829 -88.461021 10,400 42 335 -1600
2020-01-23 01:02:40 GMT 41.494152 -88.465424 10,500 41 332 -1536
2020-01-23 01:02:37 GMT 41.489960 -88.470406 10,600 41 332 -1536
2020-01-23 01:02:33 GMT 41.485817 -88.475266 10,650 41 330 -1408
2020-01-23 01:02:29 GMT 41.481255 -88.480629 10,750 41 330 -1152
2020-01-23 01:02:26 GMT 41.476181 -88.486572 10,800 41 330 -320
2020-01-23 01:02:22 GMT 41.472038 -88.491425 10,800 41 337 0
2020-01-23 01:02:16 GMT 41.465698 -88.498871 10,825 41 338 0
2020-01-23 01:02:13 GMT 41.461239 -88.504135 10,800 41 338 64
2020-01-23 01:02:08 GMT 41.455093 -88.511223 10,800 40 336 0
2020-01-23 01:02:05 GMT 41.450394 -88.516655 10,800 40 336 64
2020-01-23 01:02:02 GMT 41.449219 -88.517967 10,800 41 335 0
2020-01-23 01:01:59 GMT 41.446201 -88.521507 10,800 41 334 0
2020-01-23 01:01:54 GMT 41.433838 -88.535889 10,825 41 333 64
2020-01-23 01:01:50 GMT 41.433838 -88.535889 10,825 41 333 64
2020-01-23 01:01:45 GMT 41.422554 -88.549164 10,800 41 332 0
2020-01-23 01:01:40 GMT 41.418182 -88.554359 10,800 41 332 0
2020-01-23 01:01:36 GMT 41.418182 -88.554359 10,800 41 331 0
2020-01-23 01:01:32 GMT 41.410355 -88.563599 10,800 41 332 64
2020-01-23 01:01:29 GMT 41.410355 -88.563599 10,800 41 332 64
2020-01-23 01:01:25 GMT 41.401882 -88.573631 10,800 41 334 -64
2020-01-23 01:01:21 GMT 41.397278 -88.579185 10,800 41 334 -64
2020-01-23 01:01:18 GMT 41.397278 -88.579185 10,800 41 334 -64
2020-01-23 01:01:14 GMT 41.393784 -88.583260 10,800 41 334 -64
2020-01-23 01:01:11 GMT 41.390579 -88.587135 10,800 41 336 -64
2020-01-23 01:01:08 GMT 41.385685 -88.593002 10,800 42 337 -128
2020-01-23 01:01:05 GMT 41.383358 -88.595810 10,825 42 338 -256
2020-01-23 01:01:02 GMT 41.378750 -88.601425 10,825 42 338 -256
2020-01-23 01:00:57 GMT 41.371857 -88.609917 10,850 43 339 -320
2020-01-23 01:00:53 GMT 41.370045 -88.612167 10,850 43 339 -320
2020-01-23 01:00:50 GMT 41.366089 -88.617004 10,900 43 339 -768
2020-01-23 01:00:47 GMT 41.362427 -88.621582 10,900 43 339 -768
2020-01-23 01:00:44 GMT 41.359428 -88.625275 10,950 43 341 -1088
2020-01-23 01:00:41 GMT 41.355751 -88.629890 11,000 42 343 -1216
2020-01-23 01:00:36 GMT 41.348766 -88.638504 11,125 42 353 -1728
2020-01-23 01:00:33 GMT 41.345718 -88.642273 11,175 42 345 -1344
2020-01-23 01:00:27 GMT 41.333172 -88.657730 11,425 42 350 -1472
2020-01-23 01:00:22 GMT 41.333172 -88.657730 11,425 42 353 -1664
2020-01-23 01:00:18 GMT 41.328331 -88.663536 11,525 42 348 -1856
2020-01-23 01:00:15 GMT 41.324932 -88.667656 11,625 42 351 -1856
2020-01-23 01:00:11 GMT 41.320602 -88.672836 11,725 42 351 -1920
2020-01-23 01:00:07 GMT 41.312504 -88.682701 12,125 42 343 -1856
2020-01-23 01:00:04 GMT 41.312504 -88.682701 11,950 42 346 -1856
2020-01-23 01:00:00 GMT 41.307037 -88.689270 12,100 42 344 -1856
2020-01-23 00:59:57 GMT 41.304199 -88.692688 12,150 42 343 -1920
2020-01-23 00:59:54 GMT 41.298817 -88.699181 12,300 42 341 -1856
2020-01-23 00:59:51 GMT 41.296490 -88.701988 12,775 42 339 -1984
2020-01-23 00:59:47 GMT 41.291836 -88.707542 12,550 42 339 -1920
2020-01-23 00:59:44 GMT 41.288315 -88.711731 12,625 42 339 -1920
2020-01-23 00:59:41 GMT 41.284607 -88.716248 12,700 42 339 -1920
2020-01-23 00:59:36 GMT 41.275543 -88.727142 13,000 42 339 -1920
2020-01-23 00:59:30 GMT 41.270840 -88.732826 13,050 42 339 -1920
2020-01-23 00:59:27 GMT 41.267628 -88.736763 13,100 42 340 -1984
2020-01-23 00:59:23 GMT 41.264145 -88.740967 13,600 42 340 -1920
2020-01-23 00:59:20 GMT 41.260391 -88.745483 13,425 42 341 -1984
2020-01-23 00:59:17 GMT 41.257851 -88.748619 13,425 42 341 -1920
2020-01-23 00:59:11 GMT 41.249889 -88.758232 13,950 42 347 -1792
2020-01-23 00:59:08 GMT 41.245701 -88.763351 13,775 42 343 -1920
2020-01-23 00:59:05 GMT 41.242863 -88.766785 13,850 42 345 -1856
2020-01-23 00:58:59 GMT 41.236038 -88.775146 14,000 42 347 -1792
2020-01-23 00:58:54 GMT 41.230865 -88.781494 14,275 42 346 -1920
2020-01-23 00:58:50 GMT 41.226105 -88.787292 14,275 42 346 -1920
2020-01-23 00:58:47 GMT 41.214603 -88.801369 14,525 42 344 -1920
2020-01-23 00:58:42 GMT 41.214603 -88.801369 14,575 42 344 -1856
2020-01-23 00:58:39 GMT 41.211548 -88.805054 14,700 42 344 -1856
2020-01-23 00:58:35 GMT 41.208508 -88.808792 14,750 42 345 -1856
2020-01-23 00:58:31 GMT 41.201897 -88.816727 15,025 41 344 -1984
2020-01-23 00:58:27 GMT 41.199009 -88.820152 15,125 41 345 -1856
2020-01-23 00:58:23 GMT 41.194260 -88.825775 15,150 42 348 -1344
2020-01-23 00:58:20 GMT 41.188488 -88.832512 15,275 41 347 -1856
2020-01-23 00:58:16 GMT 41.185139 -88.836510 15,325 41 348 -1920
2020-01-23 00:58:13 GMT 41.181274 -88.841133 15,475 42 348 -2048
2020-01-23 00:58:08 GMT 41.173920 -88.850098 15,700 42 348 -1344
2020-01-23 00:58:05 GMT 41.169205 -88.855896 15,750 43 347 -1600
2020-01-23 00:57:57 GMT 41.161442 -88.865471 15,950 42 346 -1984
2020-01-23 00:57:53 GMT 41.157486 -88.870361 16,000 42 346 -1984
2020-01-23 00:57:50 GMT 41.154190 -88.874451 16,325 42 345 -2112
2020-01-23 00:57:46 GMT 41.149979 -88.879639 16,275 42 345 -2112
2020-01-23 00:57:43 GMT 41.147141 -88.883118 16,325 42 345 -2112
2020-01-23 00:57:40 GMT 41.143433 -88.887695 16,575 42 346 -2816
2020-01-23 00:57:37 GMT 41.138027 -88.894310 16,700 42 346 -2944
2020-01-23 00:57:34 GMT 41.134506 -88.898621 16,875 42 346 -3136
2020-01-23 00:57:31 GMT 41.131210 -88.902649 16,850 42 346 -3008
2020-01-23 00:57:27 GMT 41.124069 -88.911255 17,250 42 348 -2752
2020-01-23 00:57:21 GMT 41.119499 -88.916664 17,650 42 349 -2944
2020-01-23 00:57:17 GMT 41.115681 -88.921341 18,025 42 353 -2624
2020-01-23 00:57:14 GMT 41.110611 -88.927368 18,000 42 353 -2752
2020-01-23 00:57:11 GMT 41.107021 -88.931770 17,925 42 352 -2688
2020-01-23 00:57:05 GMT 41.100449 -88.939575 18,250 42 375 -2304
2020-01-23 00:56:59 GMT 41.093430 -88.948120 18,575 42 363 -1408
2020-01-23 00:56:55 GMT 41.087563 -88.955238 18,800 42 375 -2304
2020-01-23 00:56:48 GMT 41.079651 -88.964790 18,775 42 364 -1216
2020-01-23 00:56:45 GMT 41.076157 -88.969032 18,875 42 368 -960
2020-01-23 00:56:41 GMT 41.064522 -88.983139 18,925 42 371 -1280
2020-01-23 00:56:37 GMT 41.064522 -88.983139 19,000 42 373 -1856
2020-01-23 00:56:33 GMT 41.061493 -88.986824 19,025 42 373 -1984
2020-01-23 00:56:27 GMT 41.054371 -88.995499 19,550 42 375 -2304
2020-01-23 00:56:24 GMT 41.048225 -89.002991 19,575 42 377 -3904
2020-01-23 00:56:17 GMT 41.040802 -89.012024 20,300 42 377 -1920
2020-01-23 00:56:11 GMT 41.032059 -89.022583 19,975 42 378 -2816
2020-01-23 00:56:08 GMT 41.028164 -89.027275 20,100 42 378 -3392
2020-01-23 00:56:05 GMT 41.024323 -89.031921 20,300 41 375 -2368
2020-01-23 00:56:02 GMT 41.021210 -89.035583 20,375 41 376 -2240
2020-01-23 00:55:59 GMT 41.016804 -89.040817 20,575 41 375 -2368
2020-01-23 00:55:56 GMT 41.005280 -89.054565 20,800 42 372 -2176
2020-01-23 00:55:50 GMT 41.005280 -89.054565 21,700 42 378 -1280
2020-01-23 00:55:47 GMT 41.000931 -89.059731 21,000 42 373 -2240
2020-01-23 00:55:42 GMT 40.991665 -89.070717 21,625 41 374 -2304
2020-01-23 00:55:35 GMT 40.986740 -89.076477 21,425 41 376 -2048
2020-01-23 00:55:32 GMT 40.976852 -89.088196 21,600 42 378 -1472
2020-01-23 00:55:28 GMT 40.976852 -89.088196 21,650 42 379 -1472
2020-01-23 00:55:24 GMT 40.972954 -89.092880 21,725 42 378 -1280
2020-01-23 00:55:20 GMT 40.966507 -89.100647 21,975 42 374 -1088
2020-01-23 00:55:15 GMT 40.959320 -89.109253 21,925 42 374 -704
2020-01-23 00:55:10 GMT 40.954937 -89.114479 21,950 42 375 -512
2020-01-23 00:55:06 GMT 40.948746 -89.121902 22,025 42 380 -192
2020-01-23 00:55:02 GMT 40.942795 -89.129089 22,025 42 380 -256
2020-01-23 00:54:59 GMT 40.938316 -89.134392 22,025 42 382 -128
2020-01-23 00:54:53 GMT 40.929379 -89.145004 22,050 41 383 -192
2020-01-23 00:54:48 GMT 40.925701 -89.149368 22,275 42 383 -1024
2020-01-23 00:54:45 GMT 40.921738 -89.154114 22,275 42 383 -1088
2020-01-23 00:54:39 GMT 40.910946 -89.166977 22,250 42 380 -1344
2020-01-23 00:54:35 GMT 40.903076 -89.176277 22,400 42 383 -1664
2020-01-23 00:54:32 GMT 40.903076 -89.176277 22,400 42 382 -1600
2020-01-23 00:54:27 GMT 40.896748 -89.183830 22,550 42 385 -2048
2020-01-23 00:54:24 GMT 40.894138 -89.187012 22,600 42 385 -2240
2020-01-23 00:54:20 GMT 40.883286 -89.199951 22,825 41 424 -2176
2020-01-23 00:54:16 GMT 40.880360 -89.203430 23,125 42 387 -2368
2020-01-23 00:54:09 GMT 40.872910 -89.212296 23,225 42 388 -2368
2020-01-23 00:54:04 GMT 40.866257 -89.220276 23,425 42 389 -2368
2020-01-23 00:53:59 GMT 40.859299 -89.228516 23,625 42 389 -2368
2020-01-23 00:53:56 GMT 40.856094 -89.232361 23,925 42 390 -2240
2020-01-23 00:53:53 GMT 40.852615 -89.236511 23,825 42 390 -2240
2020-01-23 00:53:49 GMT 40.848038 -89.241943 23,950 42 391 -2240
2020-01-23 00:53:46 GMT 40.838882 -89.252869 24,200 42 392 -2240
2020-01-23 00:53:43 GMT 40.838882 -89.252869 24,200 42 393 -2240
2020-01-23 00:53:39 GMT 40.828079 -89.265747 24,450 42 394 -2240
2020-01-23 00:53:35 GMT 40.828079 -89.265747 24,550 42 396 -2304
2020-01-23 00:53:28 GMT 40.817780 -89.278076 24,800 42 397 -2304
2020-01-23 00:53:25 GMT 40.815884 -89.280334 24,850 42 397 -2304
2020-01-23 00:53:22 GMT 40.810436 -89.286888 26,550 42 414 -2304
2020-01-23 00:53:18 GMT 40.804993 -89.293503 25,150 42 401 -2240
2020-01-23 00:53:15 GMT 40.801941 -89.297119 25,250 42 401 -2240
2020-01-23 00:53:11 GMT 40.795074 -89.305367 25,425 42 402 -2240
2020-01-23 00:53:06 GMT 40.789024 -89.312607 25,575 42 404 -2240
2020-01-23 00:53:03 GMT 40.783218 -89.319580 25,750 42 406 -2240
2020-01-23 00:53:00 GMT 40.780426 -89.322937 25,925 42 407 -2240
2020-01-23 00:52:57 GMT 40.775391 -89.328979 25,900 42 407 -2240
2020-01-23 00:52:54 GMT 40.772919 -89.331955 26,025 42 409 -2240
2020-01-23 00:52:50 GMT 40.765049 -89.341385 26,225 42 411 -2304
2020-01-23 00:52:47 GMT 40.759689 -89.347839 26,325 42 412 -2240
2020-01-23 00:52:44 GMT 40.758301 -89.349495 26,400 42 413 -2304
2020-01-23 00:52:38 GMT 40.742889 -89.367790 26,700 42 416 -2240
2020-01-23 00:52:34 GMT 40.742889 -89.367790 26,825 41 417 -2304
2020-01-23 00:52:30 GMT 40.737991 -89.373596 27,100 41 419 -2368
2020-01-23 00:52:25 GMT 40.729889 -89.383118 27,325 41 424 -2176
2020-01-23 00:52:18 GMT 40.720219 -89.394257 27,400 41 424 -2240
2020-01-23 00:52:15 GMT 40.714554 -89.400757 27,675 40 429 -2624
2020-01-23 00:52:08 GMT 40.699364 -89.418159 27,800 40 428 -2688
2020-01-23 00:52:05 GMT 40.699364 -89.418159 27,975 40 429 -2624
2020-01-23 00:52:02 GMT 40.696339 -89.421593 28,050 40 429 -2624
2020-01-23 00:51:58 GMT 40.689728 -89.429085 28,250 40 431 -2560
2020-01-23 00:51:55 GMT 40.687592 -89.431458 28,300 40 431 -2624
2020-01-23 00:51:52 GMT 40.681549 -89.438416 28,425 41 433 -2560
2020-01-23 00:51:47 GMT 40.672829 -89.448502 28,625 41 433 -2560
2020-01-23 00:51:43 GMT 40.666824 -89.455490 28,825 41 434 -2560
2020-01-23 00:51:40 GMT 40.663513 -89.459351 28,975 41 435 -2560
2020-01-23 00:51:37 GMT 40.659004 -89.464668 29,125 41 436 -2560
2020-01-23 00:51:34 GMT 40.653854 -89.470642 29,350 41 437 -2624
2020-01-23 00:51:30 GMT 40.646900 -89.478714 29,450 41 437 -2560
2020-01-23 00:51:25 GMT 40.641724 -89.484680 29,650 41 438 -2560
2020-01-23 00:51:22 GMT 40.637173 -89.489944 29,775 41 438 -2432
2020-01-23 00:51:16 GMT 40.627396 -89.501122 30,000 41 439 -2496
2020-01-23 00:51:13 GMT 40.615196 -89.515289 30,275 41 439 -2432
2020-01-23 00:51:04 GMT 40.607025 -89.524902 30,575 41 436 -2368
2020-01-23 00:51:01 GMT 40.602489 -89.530144 30,700 41 436 -2368
2020-01-23 00:50:55 GMT 40.594391 -89.539612 30,875 41 432 -2240
2020-01-23 00:50:52 GMT 40.590775 -89.543762 31,100 41 430 -2112
2020-01-23 00:50:49 GMT 40.584473 -89.551056 31,100 41 430 -2112
2020-01-23 00:50:45 GMT 40.579971 -89.556213 31,425 41 434 -1856
2020-01-23 00:50:42 GMT 40.570358 -89.567200 31,400 41 432 -2048
2020-01-23 00:50:39 GMT 40.570358 -89.567200 31,700 40 436 -960
2020-01-23 00:50:34 GMT 40.562267 -89.576653 31,625 41 433 -2048
2020-01-23 00:50:31 GMT 40.554749 -89.585388 31,875 41 435 -2112
2020-01-23 00:50:28 GMT 40.554749 -89.585388 31,775 41 434 -1856
2020-01-23 00:50:24 GMT 40.548443 -89.592758 31,875 41 435 -2112
2020-01-23 00:50:21 GMT 40.544811 -89.596939 32,100 41 434 -1856
2020-01-23 00:50:18 GMT 40.539364 -89.603180 32,150 40 436 -960
2020-01-23 00:50:14 GMT 40.532707 -89.610794 32,350 40 445 -960
2020-01-23 00:50:11 GMT 40.527557 -89.616638 32,325 40 434 -1280
2020-01-23 00:50:06 GMT 40.520187 -89.624878 32,400 40 437 -960
2020-01-23 00:50:03 GMT 40.516182 -89.629333 32,475 40 437 -1024
2020-01-23 00:50:00 GMT 40.512177 -89.633789 32,500 40 439 -1024
2020-01-23 00:49:57 GMT 40.505997 -89.640747 32,750 40 441 -1024
2020-01-23 00:49:54 GMT 40.501377 -89.645943 32,625 40 447 -960
2020-01-23 00:49:51 GMT 40.496750 -89.651245 32,675 40 443 -960
2020-01-23 00:49:44 GMT 40.488342 -89.660736 32,750 40 445 -960
2020-01-23 00:49:41 GMT 40.481781 -89.668152 32,800 41 446 -960
2020-01-23 00:49:38 GMT 40.477123 -89.673470 32,850 40 447 -960
2020-01-23 00:49:35 GMT 40.471802 -89.679565 32,900 41 447 -832
2020-01-23 00:49:31 GMT 40.465576 -89.686646 33,000 41 450 0
2020-01-23 00:49:27 GMT 40.461483 -89.691322 33,000 41 450 -64
2020-01-23 00:49:24 GMT 40.453674 -89.700317 33,000 41 449 -192
2020-01-23 00:49:21 GMT 40.450356 -89.704117 33,000 41 450 0
2020-01-23 00:49:15 GMT 40.442070 -89.713547 33,000 41 450 0
2020-01-23 00:49:12 GMT 40.437378 -89.718933 33,000 41 450 64
2020-01-23 00:49:08 GMT 40.429501 -89.727898 33,000 41 450 -64
2020-01-23 00:49:03 GMT 40.424519 -89.733643 33,000 41 450 0
2020-01-23 00:49:00 GMT 40.417374 -89.741821 33,000 41 450 0
2020-01-23 00:48:57 GMT 40.410694 -89.749435 33,000 41 450 0
2020-01-23 00:48:54 GMT 40.409088 -89.751221 33,000 40 450 0
2020-01-23 00:48:51 GMT 40.404053 -89.756958 33,000 41 450 0
2020-01-23 00:48:48 GMT 40.399658 -89.761963 33,000 40 450 0
2020-01-23 00:48:44 GMT 40.392105 -89.770508 33,000 40 450 64
2020-01-23 00:48:41 GMT 40.387371 -89.775902 33,000 40 450 64
2020-01-23 00:48:38 GMT 40.382996 -89.780899 33,000 40 450 -64
2020-01-23 00:48:35 GMT 40.378235 -89.786194 33,000 40 450 0
2020-01-23 00:48:31 GMT 40.371918 -89.793335 33,000 40 450 -64
2020-01-23 00:48:27 GMT 40.366562 -89.799377 33,000 40 450 0
2020-01-23 00:48:23 GMT 40.356461 -89.810799 33,000 40 450 64
2020-01-23 00:48:20 GMT 40.350826 -89.817230 33,000 40 450 64
2020-01-23 00:48:17 GMT 40.350826 -89.817230 33,000 40 450 0
2020-01-23 00:48:14 GMT 40.345150 -89.823593 33,000 40 450 64
2020-01-23 00:48:11 GMT 40.340424 -89.828979 33,000 40 450 0
2020-01-23 00:48:07 GMT 40.333466 -89.836792 33,000 40 450 0
2020-01-23 00:48:00 GMT 40.317406 -89.854996 33,000 40 450 0
2020-01-23 00:47:56 GMT 40.317406 -89.854996 33,000 40 450 64
2020-01-23 00:47:53 GMT 40.312683 -89.860352 33,000 40 450 0
2020-01-23 00:47:49 GMT 40.307007 -89.866760 33,000 40 450 0
2020-01-23 00:47:46 GMT 40.301018 -89.873535 33,000 41 450 -64
2020-01-23 00:47:41 GMT 40.293137 -89.882507 33,000 41 450 -64
2020-01-23 00:47:38 GMT 40.287796 -89.888573 33,000 41 450 0
2020-01-23 00:47:35 GMT 40.284027 -89.892883 33,000 41 450 0
2020-01-23 00:47:31 GMT 40.273972 -89.904305 33,000 41 450 -64
2020-01-23 00:47:25 GMT 40.267685 -89.911484 33,000 41 450 -64
2020-01-23 00:47:22 GMT 40.264519 -89.915047 33,000 41 450 0
2020-01-23 00:47:18 GMT 40.256374 -89.924347 33,000 41 450 0
2020-01-23 00:47:14 GMT 40.251022 -89.930420 33,000 41 450 64
2020-01-23 00:47:11 GMT 40.246319 -89.935768 33,000 41 450 64
2020-01-23 00:47:07 GMT 40.240639 -89.942200 33,000 41 450 64
2020-01-23 00:47:03 GMT 40.234352 -89.949371 33,000 41 450 0
2020-01-23 00:47:00 GMT 40.230118 -89.954247 33,000 41 450 -64
2020-01-23 00:46:57 GMT 40.225250 -89.959778 33,000 41 450 -64
2020-01-23 00:46:53 GMT 40.218014 -89.967979 33,000 41 450 0
2020-01-23 00:46:50 GMT 40.213303 -89.973328 33,000 41 450 0
2020-01-23 00:46:46 GMT 40.206097 -89.981522 33,000 41 450 -64
2020-01-23 00:46:41 GMT 40.198242 -89.990479 33,000 41 450 0
2020-01-23 00:46:36 GMT 40.191666 -89.998001 33,000 41 450 -64
2020-01-23 00:46:32 GMT 40.184776 -90.005867 33,000 41 450 0
2020-01-23 00:46:29 GMT 40.180355 -90.010864 33,000 41 450 0
2020-01-23 00:46:25 GMT 40.176270 -90.015503 33,000 41 450 64
2020-01-23 00:46:21 GMT 40.168762 -90.024109 33,000 41 450 0
2020-01-23 00:46:18 GMT 40.163727 -90.029846 33,000 41 450 0
2020-01-23 00:46:14 GMT 40.155914 -90.038765 33,000 41 449 0
2020-01-23 00:46:11 GMT 40.152142 -90.043068 33,000 41 449 0
2020-01-23 00:46:08 GMT 40.147476 -90.048401 33,000 41 449 0
2020-01-23 00:46:05 GMT 40.143082 -90.053467 33,000 41 449 0
2020-01-23 00:46:00 GMT 40.135574 -90.062012 33,000 41 449 64
2020-01-23 00:45:57 GMT 40.130917 -90.067413 33,000 41 450 -64
2020-01-23 00:45:53 GMT 40.124630 -90.074532 33,000 40 450 0
2020-01-23 00:45:50 GMT 40.119278 -90.080627 33,000 40 450 -64
2020-01-23 00:45:47 GMT 40.113556 -90.086975 33,000 40 450 0
2020-01-23 00:45:42 GMT 40.108150 -90.092949 33,000 39 450 -64
2020-01-23 00:45:39 GMT 40.102890 -90.098755 33,000 39 450 -64
2020-01-23 00:45:36 GMT 40.097958 -90.104118 33,000 39 450 0
2020-01-23 00:45:32 GMT 40.091263 -90.111389 33,000 40 450 0
2020-01-23 00:45:29 GMT 40.086456 -90.116669 33,000 40 449 0
2020-01-23 00:45:26 GMT 40.081696 -90.121887 33,000 40 449 -64
2020-01-23 00:45:23 GMT 40.076263 -90.127838 33,000 40 450 -64
2020-01-23 00:45:20 GMT 40.072174 -90.132385 33,000 40 449 -64
2020-01-23 00:45:17 GMT 40.065510 -90.139763 33,000 40 449 0
2020-01-23 00:45:11 GMT 40.059494 -90.146423 33,000 40 448 0
2020-01-23 00:45:08 GMT 40.052490 -90.154175 33,000 40 449 64
2020-01-23 00:45:04 GMT 40.046814 -90.160461 33,000 40 448 -64
2020-01-23 00:45:01 GMT 40.042698 -90.165047 33,000 40 448 -64
2020-01-23 00:44:58 GMT 40.036415 -90.172035 33,000 40 448 0
2020-01-23 00:44:55 GMT 40.032944 -90.175903 33,000 40 447 -64
2020-01-23 00:44:50 GMT 40.023148 -90.186768 33,000 40 448 64
2020-01-23 00:44:45 GMT 40.016510 -90.194153 33,000 40 447 -64
2020-01-23 00:44:39 GMT 40.007366 -90.204247 33,000 40 447 0
2020-01-23 00:44:36 GMT 40.002594 -90.209412 33,000 40 447 64
2020-01-23 00:44:33 GMT 39.997868 -90.214607 33,000 40 446 -64
2020-01-23 00:44:30 GMT 39.993759 -90.219116 33,000 40 446 0
2020-01-23 00:44:26 GMT 39.985611 -90.228027 33,000 40 446 -64
2020-01-23 00:44:23 GMT 39.980877 -90.233337 33,000 40 445 -64
2020-01-23 00:44:18 GMT 39.973114 -90.242188 33,000 41 444 0
2020-01-23 00:44:13 GMT 39.965744 -90.250793 33,000 41 445 64
2020-01-23 00:44:09 GMT 39.953457 -90.265671 33,000 43 444 -64
2020-01-23 00:44:05 GMT 39.948616 -90.271599 33,000 43 444 0
2020-01-23 00:44:02 GMT 39.948616 -90.271599 33,000 43 444 64
2020-01-23 00:43:55 GMT 39.938469 -90.284149 33,000 43 444 64
2020-01-23 00:43:52 GMT 39.930088 -90.294449 33,000 43 444 -64
2020-01-23 00:43:49 GMT 39.930088 -90.294449 33,000 43 444 -64
2020-01-23 00:43:43 GMT 39.920837 -90.305824 33,000 43 444 0
2020-01-23 00:43:40 GMT 39.917862 -90.309471 33,000 43 444 -64
2020-01-23 00:43:36 GMT 39.911224 -90.317528 33,000 43 445 -64
2020-01-23 00:43:33 GMT 39.905869 -90.324158 33,000 43 445 0
2020-01-23 00:43:30 GMT 39.900761 -90.330322 33,000 43 445 0
2020-01-23 00:43:27 GMT 39.896210 -90.335800 33,000 42 444 64
2020-01-23 00:43:22 GMT 39.888977 -90.344574 33,000 42 444 0
2020-01-23 00:43:19 GMT 39.884766 -90.349655 33,000 42 444 64
2020-01-23 00:43:16 GMT 39.881149 -90.354012 33,000 42 444 0
2020-01-23 00:43:11 GMT 39.872726 -90.364220 33,000 43 444 64
2020-01-23 00:43:07 GMT 39.867058 -90.371155 33,000 43 444 0
2020-01-23 00:43:00 GMT 39.857422 -90.382874 33,000 43 444 0
2020-01-23 00:42:57 GMT 39.852951 -90.388344 33,000 43 444 0
2020-01-23 00:42:53 GMT 39.843338 -90.399986 33,000 43 444 0
2020-01-23 00:42:50 GMT 39.840912 -90.402908 33,000 43 444 0
2020-01-23 00:42:47 GMT 39.837936 -90.406555 33,000 43 444 64
2020-01-23 00:42:44 GMT 39.833447 -90.412048 33,000 43 444 0
2020-01-23 00:42:40 GMT 39.825943 -90.421181 33,000 43 444 0
2020-01-23 00:42:37 GMT 39.822922 -90.424828 33,000 43 445 0
2020-01-23 00:42:34 GMT 39.818115 -90.430679 33,000 43 444 64
2020-01-23 00:42:29 GMT 39.809097 -90.441666 33,000 43 445 64
2020-01-23 00:42:25 GMT 39.803696 -90.448227 33,000 43 445 0
2020-01-23 00:42:17 GMT 39.792526 -90.461731 33,000 43 446 0
2020-01-23 00:42:14 GMT 39.788040 -90.467216 33,000 43 446 0
2020-01-23 00:42:10 GMT 39.775677 -90.482178 33,000 43 445 -64
2020-01-23 00:42:06 GMT 39.775677 -90.482178 33,000 43 446 0
2020-01-23 00:42:02 GMT 39.770836 -90.488037 33,000 43 446 0
2020-01-23 00:41:55 GMT 39.759659 -90.501549 33,000 43 446 0
2020-01-23 00:41:52 GMT 39.754211 -90.508118 33,000 43 446 0
2020-01-23 00:41:46 GMT 39.744858 -90.519470 33,000 43 446 64
2020-01-23 00:41:43 GMT 39.740341 -90.524956 33,000 43 446 64
2020-01-23 00:41:34 GMT 39.727661 -90.540298 33,000 43 447 64
2020-01-23 00:41:31 GMT 39.722855 -90.546150 33,000 43 447 0
2020-01-23 00:41:23 GMT 39.709534 -90.562210 33,000 43 447 64
2020-01-23 00:41:19 GMT 39.702255 -90.570992 33,000 43 447 0
2020-01-23 00:41:13 GMT 39.695930 -90.578674 33,000 43 447 0
2020-01-23 00:41:10 GMT 39.683533 -90.593620 33,000 43 447 0
2020-01-23 00:41:06 GMT 39.683533 -90.593620 33,000 43 447 0
2020-01-23 00:41:03 GMT 39.679729 -90.598206 33,000 42 447 -64
2020-01-23 00:40:59 GMT 39.673233 -90.606041 33,000 43 447 0
2020-01-23 00:40:52 GMT 39.663528 -90.617744 33,000 43 447 0
2020-01-23 00:40:49 GMT 39.659573 -90.622498 33,000 43 448 64
2020-01-23 00:40:42 GMT 39.648376 -90.636070 33,000 43 447 0
2020-01-23 00:40:39 GMT 39.643841 -90.641541 33,000 43 448 -64
2020-01-23 00:40:30 GMT 39.630203 -90.658043 33,000 43 448 0
2020-01-23 00:40:27 GMT 39.625351 -90.663895 33,000 43 448 0
2020-01-23 00:40:22 GMT 39.617165 -90.673767 33,000 42 447 0
2020-01-23 00:40:18 GMT 39.612579 -90.679245 33,000 43 448 0
2020-01-23 00:40:11 GMT 39.602280 -90.691719 33,000 43 448 0
2020-01-23 00:40:08 GMT 39.596329 -90.698830 33,000 43 448 -64
2020-01-23 00:40:04 GMT 39.589840 -90.706726 33,000 43 448 0
2020-01-23 00:40:01 GMT 39.585251 -90.712204 33,000 42 448 -64
2020-01-23 00:39:57 GMT 39.580715 -90.717712 33,000 42 449 0
2020-01-23 00:39:54 GMT 39.576141 -90.723190 33,000 42 448 -64
2020-01-23 00:39:50 GMT 39.569412 -90.731186 33,000 42 450 -64
2020-01-23 00:39:47 GMT 39.564560 -90.737038 33,000 42 450 -64
2020-01-23 00:39:43 GMT 39.559345 -90.743286 33,000 42 449 64
2020-01-23 00:39:38 GMT 39.552036 -90.752075 33,000 42 450 -64
2020-01-23 00:39:35 GMT 39.545654 -90.759727 33,000 42 450 -64
2020-01-23 00:39:29 GMT 39.532486 -90.775452 33,000 42 450 0
2020-01-23 00:39:26 GMT 39.532486 -90.775452 33,000 42 450 -64
2020-01-23 00:39:22 GMT 39.526386 -90.782776 33,000 42 450 0
2020-01-23 00:39:18 GMT 39.520245 -90.790100 33,000 42 450 -64
2020-01-23 00:39:14 GMT 39.514435 -90.797043 33,000 42 450 0
2020-01-23 00:39:11 GMT 39.510132 -90.802124 33,000 42 450 -64
2020-01-23 00:39:08 GMT 39.504929 -90.808350 33,000 42 450 -64
2020-01-23 00:39:05 GMT 39.495152 -90.820068 33,000 42 451 0
2020-01-23 00:39:01 GMT 39.495152 -90.820068 33,000 42 451 0
2020-01-23 00:38:56 GMT 39.482304 -90.835510 33,000 43 452 64
2020-01-23 00:38:53 GMT 39.482304 -90.835510 33,000 43 452 64
2020-01-23 00:38:49 GMT 39.477081 -90.841827 33,000 43 452 0
2020-01-23 00:38:46 GMT 39.471588 -90.848457 33,000 43 452 0
2020-01-23 00:38:42 GMT 39.466736 -90.854362 33,000 43 452 -64
2020-01-23 00:38:38 GMT 39.460934 -90.861389 33,000 43 452 64
2020-01-23 00:38:35 GMT 39.454792 -90.868835 33,000 43 452 64
2020-01-23 00:38:31 GMT 39.445621 -90.879944 33,000 42 453 -128
2020-01-23 00:38:28 GMT 39.445621 -90.879944 33,000 42 453 0
2020-01-23 00:38:25 GMT 39.439476 -90.887268 33,000 42 453 0
2020-01-23 00:38:21 GMT 39.433933 -90.893921 33,000 42 453 -64
2020-01-23 00:38:17 GMT 39.427139 -90.902039 33,000 42 454 0
2020-01-23 00:38:14 GMT 39.423157 -90.906792 33,000 42 454 -64
2020-01-23 00:38:10 GMT 39.418213 -90.912704 33,000 42 454 0
2020-01-23 00:38:07 GMT 39.413910 -90.917892 33,000 43 454 0
2020-01-23 00:38:04 GMT 39.406841 -90.926392 33,000 43 454 0
2020-01-23 00:38:00 GMT 39.402237 -90.931931 33,000 43 453 0
2020-01-23 00:37:55 GMT 39.395248 -90.940491 33,000 43 453 0
2020-01-23 00:37:52 GMT 39.386078 -90.951599 33,000 43 453 0
2020-01-23 00:37:49 GMT 39.386078 -90.951599 33,000 43 453 0
2020-01-23 00:37:43 GMT 39.374084 -90.966019 33,000 42 453 0
2020-01-23 00:37:40 GMT 39.370113 -90.970825 33,000 42 453 64
2020-01-23 00:37:36 GMT 39.365784 -90.975891 33,000 42 453 0
2020-01-23 00:37:32 GMT 39.358658 -90.984291 33,000 42 453 0
2020-01-23 00:37:29 GMT 39.352749 -90.991211 33,000 42 453 0
2020-01-23 00:37:26 GMT 39.349628 -90.994812 33,000 42 453 0
2020-01-23 00:37:22 GMT 39.342182 -91.003540 33,000 42 453 0
2020-01-23 00:37:18 GMT 39.337852 -91.008667 33,000 42 453 64
2020-01-23 00:37:15 GMT 39.333801 -91.013367 33,000 42 453 0
2020-01-23 00:37:11 GMT 39.326385 -91.022087 33,000 42 453 64
2020-01-23 00:37:08 GMT 39.319881 -91.029724 33,000 42 453 0
2020-01-23 00:37:05 GMT 39.317093 -91.033012 33,000 42 453 0
2020-01-23 00:37:00 GMT 39.308395 -91.043167 33,000 42 452 0
2020-01-23 00:36:57 GMT 39.303776 -91.048645 33,000 42 452 -64
2020-01-23 00:36:54 GMT 39.301308 -91.051514 33,000 42 452 0
2020-01-23 00:36:50 GMT 39.292698 -91.061768 33,000 42 451 -64
2020-01-23 00:36:46 GMT 39.287430 -91.067940 33,000 42 452 0
2020-01-23 00:36:43 GMT 39.284363 -91.071587 33,000 42 452 -64
2020-01-23 00:36:39 GMT 39.277332 -91.080017 33,000 42 452 0
2020-01-23 00:36:36 GMT 39.271839 -91.086609 33,000 43 451 0
2020-01-23 00:36:29 GMT 39.260559 -91.100182 33,000 43 451 0
2020-01-23 00:36:24 GMT 39.244720 -91.119293 33,000 43 449 -64
2020-01-23 00:36:17 GMT 39.244720 -91.119293 33,000 43 450 0
2020-01-23 00:36:14 GMT 39.237762 -91.127747 33,000 43 449 0
2020-01-23 00:36:07 GMT 39.227142 -91.140610 33,000 43 449 0
2020-01-23 00:36:03 GMT 39.221985 -91.146851 33,000 42 449 0
2020-01-23 00:35:55 GMT 39.209133 -91.162048 33,000 42 449 -64
2020-01-23 00:35:47 GMT 39.196846 -91.176453 33,000 42 448 64
2020-01-23 00:35:44 GMT 39.192856 -91.181091 33,000 42 448 0
2020-01-23 00:35:34 GMT 39.176640 -91.200134 33,000 42 448 -64
2020-01-23 00:35:25 GMT 39.163792 -91.215210 33,000 42 447 0
2020-01-23 00:35:21 GMT 39.156738 -91.223480 33,000 42 446 0
2020-01-23 00:35:13 GMT 39.139446 -91.243958 33,000 42 445 -64
2020-01-23 00:35:08 GMT 39.132744 -91.251892 33,000 42 445 -64
2020-01-23 00:35:05 GMT 39.132744 -91.251892 33,000 42 445 0
2020-01-23 00:35:02 GMT 39.128815 -91.256561 33,000 42 445 -64
2020-01-23 00:34:59 GMT 39.124271 -91.261902 33,000 42 445 0
2020-01-23 00:34:52 GMT 39.112724 -91.275574 33,000 42 445 0
2020-01-23 00:34:49 GMT 39.108486 -91.280579 33,000 42 445 0
2020-01-23 00:34:43 GMT 39.098419 -91.292328 33,000 42 445 64
2020-01-23 00:34:40 GMT 39.095352 -91.295906 33,000 42 446 -64
2020-01-23 00:34:37 GMT 39.092010 -91.299866 33,000 42 445 -64
2020-01-23 00:34:33 GMT 39.084656 -91.308411 33,000 42 446 0
2020-01-23 00:34:30 GMT 39.080063 -91.313705 33,000 42 446 0
2020-01-23 00:34:27 GMT 39.074879 -91.319763 33,000 42 445 -64
2020-01-23 00:34:22 GMT 39.067245 -91.328629 33,000 42 445 -64
2020-01-23 00:34:15 GMT 39.050217 -91.348633 33,000 42 445 0
2020-01-23 00:34:10 GMT 39.050217 -91.348633 33,000 42 445 0
2020-01-23 00:34:07 GMT 39.046555 -91.352928 33,000 42 445 0
2020-01-23 00:34:04 GMT 39.038940 -91.361877 33,000 42 445 64
2020-01-23 00:33:59 GMT 39.031952 -91.370125 33,000 42 445 0
2020-01-23 00:33:50 GMT 39.018318 -91.386230 33,000 42 445 0
2020-01-23 00:33:47 GMT 39.015244 -91.389771 33,000 42 445 0
2020-01-23 00:33:44 GMT 39.010071 -91.395859 33,000 42 445 0
2020-01-23 00:33:38 GMT 39.000069 -91.407715 33,000 42 445 -64
2020-01-23 00:33:33 GMT 38.994621 -91.414185 33,000 42 446 -64
2020-01-23 00:33:30 GMT 38.988522 -91.421326 33,000 42 445 -64
2020-01-23 00:33:27 GMT 38.984894 -91.425659 33,000 42 445 -64
2020-01-23 00:33:23 GMT 38.978233 -91.433533 33,000 42 445 0
2020-01-23 00:33:17 GMT 38.968506 -91.445007 33,000 42 445 128
2020-01-23 00:33:12 GMT 38.960907 -91.453957 33,000 42 446 64
2020-01-23 00:33:08 GMT 38.952393 -91.463928 33,000 42 445 -64
2020-01-23 00:33:00 GMT 38.944160 -91.473572 33,000 42 445 64
2020-01-23 00:32:56 GMT 38.935913 -91.483215 33,000 42 446 64
2020-01-23 00:32:48 GMT 38.924332 -91.496765 33,000 42 446 -128
2020-01-23 00:32:45 GMT 38.920322 -91.501404 33,000 42 446 0
2020-01-23 00:32:39 GMT 38.911758 -91.511353 33,000 42 446 -64
2020-01-23 00:32:34 GMT 38.903240 -91.521362 33,000 42 446 0
2020-01-23 00:32:30 GMT 38.891922 -91.534500 33,000 42 446 0
2020-01-23 00:32:27 GMT 38.888260 -91.538803 33,000 42 447 0
2020-01-23 00:32:16 GMT 38.877544 -91.551331 33,000 42 447 -64
2020-01-23 00:32:13 GMT 38.871140 -91.558807 33,000 42 447 0
2020-01-23 00:32:09 GMT 38.864136 -91.567017 33,000 42 447 -64
2020-01-23 00:32:06 GMT 38.859852 -91.572021 33,000 42 447 -128
2020-01-23 00:31:57 GMT 38.848572 -91.585258 33,000 42 447 0
2020-01-23 00:31:52 GMT 38.839741 -91.595581 33,000 42 447 0
2020-01-23 00:31:45 GMT 38.827835 -91.609558 33,000 42 446 -64
2020-01-23 00:31:42 GMT 38.822659 -91.615601 33,000 42 446 64
2020-01-23 00:31:34 GMT 38.812279 -91.627747 33,000 42 447 0
2020-01-23 00:31:31 GMT 38.807739 -91.633080 33,000 42 447 0
2020-01-23 00:31:23 GMT 38.795795 -91.647034 33,000 42 446 0
2020-01-23 00:31:20 GMT 38.789978 -91.653801 33,000 42 447 0
2020-01-23 00:31:16 GMT 38.784485 -91.660187 33,000 42 447 0
2020-01-23 00:31:10 GMT 38.775593 -91.670532 33,000 42 447 64
2020-01-23 00:31:05 GMT 38.767319 -91.680130 33,000 42 448 0
2020-01-23 00:31:00 GMT 38.758972 -91.689697 33,000 41 447 0
2020-01-23 00:30:52 GMT 38.746353 -91.704193 33,000 42 448 0
2020-01-23 00:30:49 GMT 38.742962 -91.708130 33,000 42 447 0
2020-01-23 00:30:43 GMT 38.733444 -91.719124 33,000 42 448 -64
2020-01-23 00:30:39 GMT 38.726994 -91.726624 33,000 42 448 -64
2020-01-23 00:30:31 GMT 38.714748 -91.740845 33,000 42 448 0
2020-01-23 00:30:27 GMT 38.709862 -91.746582 33,000 42 448 0
2020-01-23 00:30:23 GMT 38.701584 -91.756264 33,000 42 448 0
2020-01-23 00:30:18 GMT 38.694546 -91.764465 33,000 42 448 0
2020-01-23 00:30:10 GMT 38.682907 -91.778015 33,000 42 448 -128
2020-01-23 00:30:06 GMT 38.678020 -91.783691 33,000 42 448 -128
2020-01-23 00:29:59 GMT 38.667545 -91.795837 33,000 42 448 64
2020-01-23 00:29:56 GMT 38.660191 -91.804382 33,000 42 448 128
2020-01-23 00:29:49 GMT 38.646084 -91.820801 33,000 42 448 64
2020-01-23 00:29:38 GMT 38.629467 -91.840027 33,000 42 448 0
2020-01-23 00:29:35 GMT 38.629467 -91.840027 33,000 42 449 -64
2020-01-23 00:29:29 GMT 38.613739 -91.858185 33,000 42 449 -64
2020-01-23 00:29:25 GMT 38.613739 -91.858185 33,000 42 449 -64
2020-01-23 00:29:18 GMT 38.604794 -91.868530 33,000 42 449 64
2020-01-23 00:29:14 GMT 38.596481 -91.878128 33,000 42 449 0
2020-01-23 00:29:07 GMT 38.585358 -91.890961 33,000 42 449 0
2020-01-23 00:29:03 GMT 38.580414 -91.896637 33,000 42 450 0
2020-01-23 00:28:56 GMT 38.569336 -91.909531 33,000 42 450 0
2020-01-23 00:28:53 GMT 38.563751 -91.915916 33,000 42 450 0
2020-01-23 00:28:46 GMT 38.552982 -91.928406 33,000 42 450 -64
2020-01-23 00:28:42 GMT 38.547684 -91.934486 33,000 42 450 0
2020-01-23 00:28:35 GMT 38.536873 -91.946960 33,000 42 451 -64
2020-01-23 00:28:32 GMT 38.530975 -91.953773 33,000 42 451 0
2020-01-23 00:28:25 GMT 38.520767 -91.965515 33,000 42 451 -64
2020-01-23 00:28:21 GMT 38.515179 -91.971924 33,000 42 451 0
2020-01-23 00:28:13 GMT 38.504333 -91.984467 33,000 42 451 0
2020-01-23 00:28:10 GMT 38.498421 -91.991211 33,000 41 451 -64
2020-01-23 00:28:06 GMT 38.492836 -91.997620 33,000 41 451 0
2020-01-23 00:28:00 GMT 38.481663 -92.010437 33,000 42 451 64
2020-01-23 00:27:53 GMT 38.470490 -92.023315 33,000 42 452 128
2020-01-23 00:27:49 GMT 38.454941 -92.041138 33,000 42 453 64
2020-01-23 00:27:42 GMT 38.454941 -92.041138 33,000 42 453 0
2020-01-23 00:27:38 GMT 38.447800 -92.049370 33,000 42 453 -64
2020-01-23 00:27:32 GMT 38.439056 -92.059402 33,000 42 453 0
2020-01-23 00:27:27 GMT 38.426605 -92.073669 33,000 42 453 -64
2020-01-23 00:27:20 GMT 38.421936 -92.079041 33,000 42 454 -64
2020-01-23 00:27:16 GMT 38.415699 -92.086243 33,000 42 454 -64
2020-01-23 00:27:11 GMT 38.405083 -92.098450 33,000 42 454 0
2020-01-23 00:27:07 GMT 38.399498 -92.104958 33,000 42 454 64
2020-01-23 00:27:04 GMT 38.397030 -92.107826 33,000 42 454 64
2020-01-23 00:27:00 GMT 38.381481 -92.125793 33,000 42 453 128
2020-01-23 00:26:54 GMT 38.381481 -92.125793 32,925 42 452 192
2020-01-23 00:26:50 GMT 38.373138 -92.135498 32,975 42 452 192
2020-01-23 00:26:46 GMT 38.366913 -92.142624 32,975 42 451 192
2020-01-23 00:26:41 GMT 38.361374 -92.149055 32,950 42 451 448
2020-01-23 00:26:38 GMT 38.356716 -92.154335 32,775 41 453 960
2020-01-23 00:26:35 GMT 38.351734 -92.160011 32,775 41 453 960
2020-01-23 00:26:32 GMT 38.344528 -92.168106 32,825 41 452 960
2020-01-23 00:26:28 GMT 38.340424 -92.172668 32,775 41 453 960
2020-01-23 00:26:24 GMT 38.333176 -92.180786 32,650 41 454 1024
2020-01-23 00:26:20 GMT 38.327202 -92.187531 32,475 42 453 1024
2020-01-23 00:26:17 GMT 38.322510 -92.192886 32,600 41 454 1024
2020-01-23 00:26:14 GMT 38.316589 -92.199654 32,525 42 453 1024
2020-01-23 00:26:10 GMT 38.312531 -92.204338 32,475 42 453 1024
2020-01-23 00:26:06 GMT 38.304474 -92.213631 32,400 42 451 1024
2020-01-23 00:26:03 GMT 38.300480 -92.218285 32,375 42 450 1024
2020-01-23 00:26:00 GMT 38.296150 -92.223236 32,300 42 450 960
2020-01-23 00:25:55 GMT 38.288750 -92.231773 32,225 42 448 960
2020-01-23 00:25:52 GMT 38.284149 -92.237122 32,200 42 448 1024
2020-01-23 00:25:46 GMT 38.273712 -92.249161 32,050 42 446 1216
2020-01-23 00:25:40 GMT 38.266685 -92.257210 31,975 41 445 1216
2020-01-23 00:25:34 GMT 38.257515 -92.267723 31,825 42 443 1472
2020-01-23 00:25:30 GMT 38.251099 -92.275047 31,775 42 443 1728
2020-01-23 00:25:24 GMT 38.240475 -92.287247 31,525 41 441 1664
2020-01-23 00:25:21 GMT 38.235901 -92.292404 31,425 41 440 1664
2020-01-23 00:25:13 GMT 38.225254 -92.304504 31,225 41 439 1792
2020-01-23 00:25:09 GMT 38.219200 -92.311371 31,125 41 439 1792
2020-01-23 00:25:03 GMT 38.208618 -92.323433 30,925 41 439 1728
2020-01-23 00:24:59 GMT 38.202576 -92.330330 30,800 41 438 1664
2020-01-23 00:24:52 GMT 38.192322 -92.341957 30,600 42 437 1856
2020-01-23 00:24:48 GMT 38.187824 -92.347130 30,225 41 435 1792
2020-01-23 00:24:39 GMT 38.172184 -92.364929 30,225 41 435 1792
2020-01-23 00:24:28 GMT 38.156296 -92.383041 29,900 41 435 1792
2020-01-23 00:24:17 GMT 38.140091 -92.401390 29,675 41 434 1664
2020-01-23 00:24:07 GMT 38.124527 -92.419037 29,375 41 433 1344
2020-01-23 00:23:58 GMT 38.112625 -92.432533 29,175 41 429 1024
2020-01-23 00:23:55 GMT 38.107269 -92.438614 29,125 41 429 1024
2020-01-23 00:23:48 GMT 38.096352 -92.450966 29,000 41 426 1152
2020-01-23 00:23:45 GMT 38.091934 -92.455971 28,950 41 426 1088
2020-01-23 00:23:38 GMT 38.082550 -92.466606 28,825 41 422 960
2020-01-23 00:23:35 GMT 38.077587 -92.472221 28,775 42 421 768
2020-01-23 00:23:26 GMT 38.064606 -92.487000 28,650 42 416 896
2020-01-23 00:23:23 GMT 38.061722 -92.490273 28,625 42 416 896
2020-01-23 00:23:17 GMT 38.052017 -92.501373 28,475 42 412 1280
2020-01-23 00:23:14 GMT 38.047237 -92.506912 28,425 42 412 1280
2020-01-23 00:23:06 GMT 38.036179 -92.519554 28,275 42 409 1152
2020-01-23 00:23:02 GMT 38.031410 -92.525002 28,200 42 409 1216
2020-01-23 00:22:53 GMT 38.017349 -92.540947 28,000 41 405 1152
2020-01-23 00:22:45 GMT 38.006516 -92.553268 27,800 41 402 1088
2020-01-23 00:22:41 GMT 38.002316 -92.557961 27,800 41 400 1088
2020-01-23 00:22:31 GMT 37.987610 -92.574364 27,575 41 398 1664
2020-01-23 00:22:24 GMT 37.977409 -92.585732 27,275 41 394 1664
2020-01-23 00:22:20 GMT 37.971916 -92.591881 27,250 41 396 1664
2020-01-23 00:22:09 GMT 37.958450 -92.606857 26,975 41 393 1664
2020-01-23 00:22:02 GMT 37.946171 -92.620598 26,750 41 391 1024
2020-01-23 00:21:59 GMT 37.942913 -92.624237 26,700 41 391 1024
2020-01-23 00:21:52 GMT 37.934555 -92.633682 26,550 41 388 1024
2020-01-23 00:21:48 GMT 37.929459 -92.639465 26,525 41 388 1088
2020-01-23 00:21:40 GMT 37.919266 -92.650986 26,400 42 386 1024
2020-01-23 00:21:31 GMT 37.900692 -92.672066 26,150 41 384 768
2020-01-23 00:21:27 GMT 37.900692 -92.672066 26,175 41 384 768
2020-01-23 00:21:16 GMT 37.887222 -92.687386 26,025 42 383 1280
2020-01-23 00:21:00 GMT 37.865250 -92.712517 25,500 42 380 1856
2020-01-23 00:20:56 GMT 37.860031 -92.718475 25,375 42 379 1984
2020-01-23 00:20:44 GMT 37.845806 -92.734879 25,025 42 376 1792
2020-01-23 00:20:33 GMT 37.830490 -92.752792 24,675 43 373 1856
2020-01-23 00:20:23 GMT 37.818146 -92.767387 24,325 43 372 2240
2020-01-23 00:20:13 GMT 37.805305 -92.782471 23,950 42 372 2368
2020-01-23 00:19:59 GMT 37.788548 -92.801872 23,425 42 372 2304
2020-01-23 00:19:53 GMT 37.781158 -92.810341 22,950 42 371 2240
2020-01-23 00:19:45 GMT 37.770622 -92.822113 22,900 40 370 2304
2020-01-23 00:19:36 GMT 37.756378 -92.836983 22,475 37 370 2432
2020-01-23 00:19:25 GMT 37.742504 -92.849579 22,075 32 368 2368
2020-01-23 00:19:14 GMT 37.725906 -92.860657 21,675 23 366 2176
2020-01-23 00:19:05 GMT 37.710617 -92.868744 21,300 22 365 2176
2020-01-23 00:18:52 GMT 37.693161 -92.877937 20,900 22 362 2240
2020-01-23 00:15:04 GMT 37.373840 -93.081429 12,425 51 337 2816
2020-01-23 00:14:51 GMT 37.361160 -93.101654 11,900 51 335 2368
2020-01-23 00:14:47 GMT 37.356308 -93.109543 11,675 52 332 2368
2020-01-23 00:14:20 GMT 37.331078 -93.149910 10,525 52 323 2176
2020-01-23 00:14:16 GMT 37.328423 -93.154152 10,425 51 319 2240
2020-01-23 00:13:43 GMT 37.298443 -93.200005 9,225 51 291 2048
2020-01-23 00:13:35 GMT 37.291553 -93.210754 8,975 51 291 2048
2020-01-23 00:13:25 GMT 37.282848 -93.224304 8,575 51 285 2624
2020-01-23 00:13:14 GMT 37.274460 -93.238159 8,075 54 279 2880
2020-01-23 00:13:06 GMT 37.267441 -93.250519 7,475 53 280 4288
2020-01-23 00:12:54 GMT 37.259293 -93.264191 6,700 52 288 4928
2020-01-23 00:12:45 GMT 37.250961 -93.277451 5,950 51 296 3968
2020-01-23 00:12:35 GMT 37.241745 -93.292137 5,225 51 299 4032
2020-01-23 00:12:24 GMT 37.232899 -93.305695 4,650 50 301 2496
2020-01-23 00:12:12 GMT 37.222656 -93.322472 4,375 63 275 1536
2020-01-23 00:12:00 GMT 37.217304 -93.339127 4,075 83 250 2176
We lost coverage of the aircraft here for a total of 277 minutes
2020-01-22 19:35:25 GMT 37.350208 -93.428452 2,875 244 153 640
2020-01-22 19:35:20 GMT 37.351593 -93.425049 2,850 244 156 192
2020-01-22 19:34:35 GMT 37.369251 -93.382538 2,925 242 193 -256
2020-01-22 19:34:28 GMT 37.372559 -93.374847 2,925 242 193 -64
2020-01-22 19:34:18 GMT 37.376358 -93.366196 2,925 242 192 64
2020-01-22 19:33:48 GMT 37.389545 -93.336143 2,925 241 193 64
2020-01-22 19:33:11 GMT 37.405888 -93.299721 2,950 241 195 -448
2020-01-22 19:33:06 GMT 37.407982 -93.294945 2,925 241 196 576
2020-01-22 19:28:53 GMT 37.457840 -92.997047 7,750 277 277 -5184
2020-01-22 19:28:22 GMT 37.458630 -92.951019 9,325 277 277 -5184
2020-01-22 19:28:16 GMT 37.457886 -92.943916 9,725 278 280 -5312
2020-01-22 19:27:58 GMT 37.454132 -92.914650 11,650 282 269 -7232
2020-01-22 19:27:54 GMT 37.453136 -92.908150 12,125 282 269 -7232
2020-01-22 19:26:35 GMT 37.488052 -92.818459 15,925 176 272 128
2020-01-22 19:24:24 GMT 37.654243 -92.829819 15,900 176 268 192
2020-01-22 19:21:16 GMT 37.599312 -93.034019 13,850 30 355 1728
2020-01-22 19:19:57 GMT 37.491173 -93.115219 11,825 31 327 1216
2020-01-22 19:19:47 GMT 37.477997 -93.125191 11,600 31 327 1216
2020-01-22 19:18:29 GMT 37.380005 -93.200546 9,125 31 302 2624
2020-01-22 19:17:55 GMT 37.341644 -93.229858 8,025 30 293 2176
2020-01-22 19:17:44 GMT 37.328518 -93.239357 7,675 29 288 1728
2020-01-22 19:17:35 GMT 37.317951 -93.246941 7,425 29 282 1664
2020-01-22 19:17:24 GMT 37.305542 -93.255692 7,100 28 275 1600
2020-01-22 19:17:15 GMT 37.294510 -93.263290 6,850 28 267 1344
2020-01-22 19:17:03 GMT 37.282803 -93.271416 6,600 28 256 1856
2020-01-22 19:16:54 GMT 37.272934 -93.278282 6,175 29 253 3264
2020-01-22 19:16:44 GMT 37.262375 -93.285789 5,650 29 258 2880
2020-01-22 19:16:33 GMT 37.251572 -93.293617 5,200 30 258 2240
2020-01-22 19:16:22 GMT 37.240768 -93.302330 4,800 34 254 2432
2020-01-22 19:16:13 GMT 37.231339 -93.311150 4,350 39 253 2880
2020-01-22 19:16:02 GMT 37.222458 -93.321732 3,875 52 253 2112

Making use of Plane Finder data

You are free to use the raw flight data, aircraft information and images provided in this report for your own purposes provided the data is correctly attributed to Plane Finder. We ask that you please credit Plane Finder and link to planefinder.net in close proximity to the content.

Optionally one of the following logos (no smaller then 150x24px) can be used and must link to planefinder.net

Embedding the Plane Finder map

You are welcome to embed the Plane Finder playback map on your website to offer visitors a more interactive experience. We suggest using the following HTML code:

<iframe src="//planefinder.net/data/report/AA3660-N661JA-7700-squawk-2020-01-22/map" width="800" height="600" seamless="seamless"></iframe>

Where our data comes from

Plane Finder has a global network of data feeds and antenna radars that receive data broadcast directly from aircraft. The primary technologies used are ADS-B and MLAT. We also show feeds from the FAA and a FLARM glider feed.

Click here to find out more about the Plane Finder network.

How we collect our data